sensor_id;sensor_type;location;lat;lon;timestamp;temperature;humidity
74153;DHT22;62505;46.070;14.492;2023-05-14T00:00:51;22.30;68.40
74153;DHT22;62505;46.070;14.492;2023-05-14T00:03:18;22.40;68.50
74153;DHT22;62505;46.070;14.492;2023-05-14T00:05:47;22.40;68.50
74153;DHT22;62505;46.070;14.492;2023-05-14T00:08:14;22.40;68.50
74153;DHT22;62505;46.070;14.492;2023-05-14T00:10:42;22.40;68.60
74153;DHT22;62505;46.070;14.492;2023-05-14T00:13:09;22.40;69.30
74153;DHT22;62505;46.070;14.492;2023-05-14T00:15:36;22.40;68.50
74153;DHT22;62505;46.070;14.492;2023-05-14T00:18:03;22.40;68.60
74153;DHT22;62505;46.070;14.492;2023-05-14T00:20:30;22.40;68.50
74153;DHT22;62505;46.070;14.492;2023-05-14T00:22:57;22.30;68.40
74153;DHT22;62505;46.070;14.492;2023-05-14T00:25:24;22.30;68.40
74153;DHT22;62505;46.070;14.492;2023-05-14T00:27:52;22.40;68.50
74153;DHT22;62505;46.070;14.492;2023-05-14T00:30:19;22.40;68.50
74153;DHT22;62505;46.070;14.492;2023-05-14T00:32:46;22.40;68.50
74153;DHT22;62505;46.070;14.492;2023-05-14T00:35:13;22.40;68.50
74153;DHT22;62505;46.070;14.492;2023-05-14T00:37:40;22.40;68.50
74153;DHT22;62505;46.070;14.492;2023-05-14T00:40:08;22.30;68.40
74153;DHT22;62505;46.070;14.492;2023-05-14T00:42:37;22.30;68.40
74153;DHT22;62505;46.070;14.492;2023-05-14T00:45:06;22.40;68.50
74153;DHT22;62505;46.070;14.492;2023-05-14T00:47:34;22.40;68.50
74153;DHT22;62505;46.070;14.492;2023-05-14T00:50:02;22.40;68.40
74153;DHT22;62505;46.070;14.492;2023-05-14T00:52:29;22.40;68.50
74153;DHT22;62505;46.070;14.492;2023-05-14T00:54:57;22.30;68.40
74153;DHT22;62505;46.070;14.492;2023-05-14T00:57:25;22.40;68.50
74153;DHT22;62505;46.070;14.492;2023-05-14T00:59:52;22.30;68.40
74153;DHT22;62505;46.070;14.492;2023-05-14T01:02:20;22.40;68.40
74153;DHT22;62505;46.070;14.492;2023-05-14T01:04:47;22.30;68.30
74153;DHT22;62505;46.070;14.492;2023-05-14T01:07:19;22.30;68.40
74153;DHT22;62505;46.070;14.492;2023-05-14T01:09:54;22.40;68.40
74153;DHT22;62505;46.070;14.492;2023-05-14T01:12:38;22.40;68.40
74153;DHT22;62505;46.070;14.492;2023-05-14T01:15:09;22.30;68.30
74153;DHT22;62505;46.070;14.492;2023-05-14T01:17:41;22.30;68.30
74153;DHT22;62505;46.070;14.492;2023-05-14T01:20:09;22.30;68.30
74153;DHT22;62505;46.070;14.492;2023-05-14T01:22:38;22.40;68.40
74153;DHT22;62505;46.070;14.492;2023-05-14T01:25:06;22.40;68.40
74153;DHT22;62505;46.070;14.492;2023-05-14T01:27:37;22.40;68.40
74153;DHT22;62505;46.070;14.492;2023-05-14T01:30:20;22.30;68.30
74153;DHT22;62505;46.070;14.492;2023-05-14T01:32:56;22.30;68.30
74153;DHT22;62505;46.070;14.492;2023-05-14T01:35:26;22.30;68.30
74153;DHT22;62505;46.070;14.492;2023-05-14T01:37:57;22.30;68.30
74153;DHT22;62505;46.070;14.492;2023-05-14T01:40:25;22.30;68.30
74153;DHT22;62505;46.070;14.492;2023-05-14T01:42:53;22.30;68.30
74153;DHT22;62505;46.070;14.492;2023-05-14T01:45:21;22.30;68.20
74153;DHT22;62505;46.070;14.492;2023-05-14T01:47:48;22.30;68.30
74153;DHT22;62505;46.070;14.492;2023-05-14T01:50:15;22.30;68.30
74153;DHT22;62505;46.070;14.492;2023-05-14T01:52:42;22.30;68.30
74153;DHT22;62505;46.070;14.492;2023-05-14T01:55:10;22.30;68.30
74153;DHT22;62505;46.070;14.492;2023-05-14T01:57:37;22.30;68.30
74153;DHT22;62505;46.070;14.492;2023-05-14T02:00:05;22.30;68.20
74153;DHT22;62505;46.070;14.492;2023-05-14T02:02:32;22.30;68.30
74153;DHT22;62505;46.070;14.492;2023-05-14T02:04:59;22.30;68.30
74153;DHT22;62505;46.070;14.492;2023-05-14T02:07:25;22.30;68.20
74153;DHT22;62505;46.070;14.492;2023-05-14T02:09:52;22.30;69.00
74153;DHT22;62505;46.070;14.492;2023-05-14T02:12:20;22.30;69.00
74153;DHT22;62505;46.070;14.492;2023-05-14T02:14:47;22.30;68.20
74153;DHT22;62505;46.070;14.492;2023-05-14T02:17:15;22.30;68.20
74153;DHT22;62505;46.070;14.492;2023-05-14T02:19:42;22.30;68.30
74153;DHT22;62505;46.070;14.492;2023-05-14T02:22:09;22.30;68.20
74153;DHT22;62505;46.070;14.492;2023-05-14T02:24:36;22.30;68.20
74153;DHT22;62505;46.070;14.492;2023-05-14T02:27:03;22.30;68.20
74153;DHT22;62505;46.070;14.492;2023-05-14T02:29:32;22.30;68.20
74153;DHT22;62505;46.070;14.492;2023-05-14T02:31:59;22.30;68.20
74153;DHT22;62505;46.070;14.492;2023-05-14T02:34:26;22.30;68.20
74153;DHT22;62505;46.070;14.492;2023-05-14T02:36:52;22.30;68.20
74153;DHT22;62505;46.070;14.492;2023-05-14T02:39:19;22.30;68.20
74153;DHT22;62505;46.070;14.492;2023-05-14T02:41:46;22.30;68.20
74153;DHT22;62505;46.070;14.492;2023-05-14T02:44:13;22.30;68.20
74153;DHT22;62505;46.070;14.492;2023-05-14T02:46:41;22.30;68.20
74153;DHT22;62505;46.070;14.492;2023-05-14T02:49:08;22.30;68.20
74153;DHT22;62505;46.070;14.492;2023-05-14T02:51:35;22.30;68.20
74153;DHT22;62505;46.070;14.492;2023-05-14T02:54:02;22.30;68.20
74153;DHT22;62505;46.070;14.492;2023-05-14T02:56:29;22.30;68.20
74153;DHT22;62505;46.070;14.492;2023-05-14T02:58:56;22.30;68.20
74153;DHT22;62505;46.070;14.492;2023-05-14T03:01:22;22.30;68.10
74153;DHT22;62505;46.070;14.492;2023-05-14T03:03:51;22.30;68.10
74153;DHT22;62505;46.070;14.492;2023-05-14T03:06:18;22.30;68.10
74153;DHT22;62505;46.070;14.492;2023-05-14T03:08:45;22.30;68.10
74153;DHT22;62505;46.070;14.492;2023-05-14T03:11:11;22.30;68.10
74153;DHT22;62505;46.070;14.492;2023-05-14T03:13:38;22.30;68.10
74153;DHT22;62505;46.070;14.492;2023-05-14T03:16:07;22.30;68.10
74153;DHT22;62505;46.070;14.492;2023-05-14T03:18:33;22.30;68.20
74153;DHT22;62505;46.070;14.492;2023-05-14T03:21:02;22.30;68.10
74153;DHT22;62505;46.070;14.492;2023-05-14T03:23:29;22.30;68.10
74153;DHT22;62505;46.070;14.492;2023-05-14T03:25:59;22.30;68.10
74153;DHT22;62505;46.070;14.492;2023-05-14T03:28:26;22.30;68.20
74153;DHT22;62505;46.070;14.492;2023-05-14T03:30:53;22.30;68.90
74153;DHT22;62505;46.070;14.492;2023-05-14T03:33:20;22.30;68.10
74153;DHT22;62505;46.070;14.492;2023-05-14T03:35:48;22.30;68.10
74153;DHT22;62505;46.070;14.492;2023-05-14T03:38:16;22.30;68.10
74153;DHT22;62505;46.070;14.492;2023-05-14T03:40:43;22.30;68.10
74153;DHT22;62505;46.070;14.492;2023-05-14T03:43:10;22.30;68.10
74153;DHT22;62505;46.070;14.492;2023-05-14T03:45:37;22.30;68.10
74153;DHT22;62505;46.070;14.492;2023-05-14T03:48:05;22.30;68.10
74153;DHT22;62505;46.070;14.492;2023-05-14T03:50:32;22.30;68.10
74153;DHT22;62505;46.070;14.492;2023-05-14T03:52:59;22.30;68.10
74153;DHT22;62505;46.070;14.492;2023-05-14T03:55:27;22.30;68.10
74153;DHT22;62505;46.070;14.492;2023-05-14T03:57:54;22.30;68.10
74153;DHT22;62505;46.070;14.492;2023-05-14T04:00:21;22.30;68.10
74153;DHT22;62505;46.070;14.492;2023-05-14T04:02:47;22.30;68.10
74153;DHT22;62505;46.070;14.492;2023-05-14T04:05:14;22.30;68.10
74153;DHT22;62505;46.070;14.492;2023-05-14T04:07:41;22.30;68.10
74153;DHT22;62505;46.070;14.492;2023-05-14T04:10:10;22.30;68.10
74153;DHT22;62505;46.070;14.492;2023-05-14T04:12:38;22.30;68.10
74153;DHT22;62505;46.070;14.492;2023-05-14T04:15:06;22.30;68.10
74153;DHT22;62505;46.070;14.492;2023-05-14T04:17:33;22.30;68.10
74153;DHT22;62505;46.070;14.492;2023-05-14T04:20:00;22.30;68.10
74153;DHT22;62505;46.070;14.492;2023-05-14T04:22:27;22.30;68.10
74153;DHT22;62505;46.070;14.492;2023-05-14T04:24:54;22.30;68.20
74153;DHT22;62505;46.070;14.492;2023-05-14T04:27:21;22.30;68.10
74153;DHT22;62505;46.070;14.492;2023-05-14T04:29:49;22.30;68.10
74153;DHT22;62505;46.070;14.492;2023-05-14T04:32:16;22.30;68.10
74153;DHT22;62505;46.070;14.492;2023-05-14T04:34:43;22.30;68.10
74153;DHT22;62505;46.070;14.492;2023-05-14T04:37:11;22.30;68.30
74153;DHT22;62505;46.070;14.492;2023-05-14T04:39:38;22.30;68.10
74153;DHT22;62505;46.070;14.492;2023-05-14T04:42:05;22.30;68.10
74153;DHT22;62505;46.070;14.492;2023-05-14T04:44:33;22.30;68.10
74153;DHT22;62505;46.070;14.492;2023-05-14T04:47:02;22.30;68.10
74153;DHT22;62505;46.070;14.492;2023-05-14T04:49:29;22.30;68.10
74153;DHT22;62505;46.070;14.492;2023-05-14T04:51:56;22.30;68.10
74153;DHT22;62505;46.070;14.492;2023-05-14T04:54:23;22.30;68.10
74153;DHT22;62505;46.070;14.492;2023-05-14T04:56:50;22.30;68.10
74153;DHT22;62505;46.070;14.492;2023-05-14T04:59:17;22.30;68.00
74153;DHT22;62505;46.070;14.492;2023-05-14T05:01:43;22.30;68.10
74153;DHT22;62505;46.070;14.492;2023-05-14T05:04:12;22.30;68.10
74153;DHT22;62505;46.070;14.492;2023-05-14T05:06:39;22.30;68.10
74153;DHT22;62505;46.070;14.492;2023-05-14T05:09:05;22.30;68.10
74153;DHT22;62505;46.070;14.492;2023-05-14T05:11:33;22.30;68.80
74153;DHT22;62505;46.070;14.492;2023-05-14T05:14:00;22.30;68.10
74153;DHT22;62505;46.070;14.492;2023-05-14T05:16:27;22.30;68.00
74153;DHT22;62505;46.070;14.492;2023-05-14T05:18:53;22.30;68.00
74153;DHT22;62505;46.070;14.492;2023-05-14T05:21:22;22.30;68.10
74153;DHT22;62505;46.070;14.492;2023-05-14T05:23:49;22.30;68.10
74153;DHT22;62505;46.070;14.492;2023-05-14T05:26:16;22.30;68.00
74153;DHT22;62505;46.070;14.492;2023-05-14T05:28:43;22.30;68.00
74153;DHT22;62505;46.070;14.492;2023-05-14T05:31:10;22.30;68.00
74153;DHT22;62505;46.070;14.492;2023-05-14T05:33:39;22.30;68.00
74153;DHT22;62505;46.070;14.492;2023-05-14T05:36:06;22.30;68.10
74153;DHT22;62505;46.070;14.492;2023-05-14T05:38:35;22.30;68.00
74153;DHT22;62505;46.070;14.492;2023-05-14T05:41:02;22.30;68.00
74153;DHT22;62505;46.070;14.492;2023-05-14T05:43:29;22.30;68.10
74153;DHT22;62505;46.070;14.492;2023-05-14T05:45:55;22.30;68.10
74153;DHT22;62505;46.070;14.492;2023-05-14T05:48:22;22.20;67.90
74153;DHT22;62505;46.070;14.492;2023-05-14T05:50:49;22.30;68.00
74153;DHT22;62505;46.070;14.492;2023-05-14T05:53:16;22.30;68.00
74153;DHT22;62505;46.070;14.492;2023-05-14T05:55:44;22.30;68.00
74153;DHT22;62505;46.070;14.492;2023-05-14T05:58:11;22.30;68.00
74153;DHT22;62505;46.070;14.492;2023-05-14T06:00:43;22.30;67.90
74153;DHT22;62505;46.070;14.492;2023-05-14T06:03:10;22.30;67.90
74153;DHT22;62505;46.070;14.492;2023-05-14T06:05:37;22.30;67.90
74153;DHT22;62505;46.070;14.492;2023-05-14T06:08:04;22.30;68.00
74153;DHT22;62505;46.070;14.492;2023-05-14T06:10:32;22.30;68.00
74153;DHT22;62505;46.070;14.492;2023-05-14T06:13:00;22.20;67.90
74153;DHT22;62505;46.070;14.492;2023-05-14T06:15:27;22.30;68.00
74153;DHT22;62505;46.070;14.492;2023-05-14T06:17:54;22.30;68.00
74153;DHT22;62505;46.070;14.492;2023-05-14T06:20:21;22.30;68.00
74153;DHT22;62505;46.070;14.492;2023-05-14T06:22:47;22.30;67.90
74153;DHT22;62505;46.070;14.492;2023-05-14T06:25:14;22.30;68.00
74153;DHT22;62505;46.070;14.492;2023-05-14T06:27:41;22.20;67.90
74153;DHT22;62505;46.070;14.492;2023-05-14T06:30:11;22.30;68.30
74153;DHT22;62505;46.070;14.492;2023-05-14T06:32:38;22.30;68.00
74153;DHT22;62505;46.070;14.492;2023-05-14T06:35:05;22.30;67.90
74153;DHT22;62505;46.070;14.492;2023-05-14T06:37:32;22.30;67.90
74153;DHT22;62505;46.070;14.492;2023-05-14T06:39:59;22.20;67.90
74153;DHT22;62505;46.070;14.492;2023-05-14T06:42:26;22.20;67.90
74153;DHT22;62505;46.070;14.492;2023-05-14T06:44:53;22.30;67.90
74153;DHT22;62505;46.070;14.492;2023-05-14T06:47:21;22.30;67.90
74153;DHT22;62505;46.070;14.492;2023-05-14T06:49:48;22.30;67.90
74153;DHT22;62505;46.070;14.492;2023-05-14T06:52:15;22.20;67.80
74153;DHT22;62505;46.070;14.492;2023-05-14T06:54:42;22.30;67.90
74153;DHT22;62505;46.070;14.492;2023-05-14T06:57:09;22.20;68.70
74153;DHT22;62505;46.070;14.492;2023-05-14T06:59:37;22.30;67.90
74153;DHT22;62505;46.070;14.492;2023-05-14T07:02:04;22.30;67.90
74153;DHT22;62505;46.070;14.492;2023-05-14T07:04:35;22.20;67.80
74153;DHT22;62505;46.070;14.492;2023-05-14T07:07:02;22.30;67.90
74153;DHT22;62505;46.070;14.492;2023-05-14T07:09:30;22.30;67.90
74153;DHT22;62505;46.070;14.492;2023-05-14T07:11:57;22.30;67.90
74153;DHT22;62505;46.070;14.492;2023-05-14T07:14:23;22.20;67.80
74153;DHT22;62505;46.070;14.492;2023-05-14T07:16:50;22.30;67.90
74153;DHT22;62505;46.070;14.492;2023-05-14T07:19:17;22.30;67.90
74153;DHT22;62505;46.070;14.492;2023-05-14T07:21:45;22.30;67.90
74153;DHT22;62505;46.070;14.492;2023-05-14T07:24:12;22.30;67.80
74153;DHT22;62505;46.070;14.492;2023-05-14T07:26:39;22.30;68.70
74153;DHT22;62505;46.070;14.492;2023-05-14T07:29:06;22.30;67.90
74153;DHT22;62505;46.070;14.492;2023-05-14T07:31:33;22.30;67.80
74153;DHT22;62505;46.070;14.492;2023-05-14T07:34:00;22.20;67.80
74153;DHT22;62505;46.070;14.492;2023-05-14T07:36:26;22.30;67.90
74153;DHT22;62505;46.070;14.492;2023-05-14T07:38:55;22.20;67.90
74153;DHT22;62505;46.070;14.492;2023-05-14T07:41:22;22.30;67.90
74153;DHT22;62505;46.070;14.492;2023-05-14T07:43:48;22.30;67.90
74153;DHT22;62505;46.070;14.492;2023-05-14T07:46:15;22.20;67.80
74153;DHT22;62505;46.070;14.492;2023-05-14T07:48:42;22.30;67.90
74153;DHT22;62505;46.070;14.492;2023-05-14T07:51:09;22.20;67.90
74153;DHT22;62505;46.070;14.492;2023-05-14T07:53:36;22.30;67.90
74153;DHT22;62505;46.070;14.492;2023-05-14T07:56:05;22.20;67.80
74153;DHT22;62505;46.070;14.492;2023-05-14T07:58:32;22.30;67.90
74153;DHT22;62505;46.070;14.492;2023-05-14T08:00:59;22.30;67.90
74153;DHT22;62505;46.070;14.492;2023-05-14T08:03:28;22.20;67.80
74153;DHT22;62505;46.070;14.492;2023-05-14T08:05:55;22.30;67.90
74153;DHT22;62505;46.070;14.492;2023-05-14T08:08:22;22.20;67.90
74153;DHT22;62505;46.070;14.492;2023-05-14T08:10:49;22.30;67.90
74153;DHT22;62505;46.070;14.492;2023-05-14T08:13:18;22.30;67.90
74153;DHT22;62505;46.070;14.492;2023-05-14T08:15:44;22.30;67.90
74153;DHT22;62505;46.070;14.492;2023-05-14T08:18:11;22.30;67.90
74153;DHT22;62505;46.070;14.492;2023-05-14T08:20:38;22.30;67.90
74153;DHT22;62505;46.070;14.492;2023-05-14T08:23:05;22.30;67.90
74153;DHT22;62505;46.070;14.492;2023-05-14T08:25:32;22.20;67.80
74153;DHT22;62505;46.070;14.492;2023-05-14T08:27:59;22.30;67.90
74153;DHT22;62505;46.070;14.492;2023-05-14T08:30:28;22.30;67.80
74153;DHT22;62505;46.070;14.492;2023-05-14T08:32:54;22.20;67.80
74153;DHT22;62505;46.070;14.492;2023-05-14T08:35:21;22.30;67.80
74153;DHT22;62505;46.070;14.492;2023-05-14T08:37:48;22.20;67.80
74153;DHT22;62505;46.070;14.492;2023-05-14T08:40:16;22.30;67.80
74153;DHT22;62505;46.070;14.492;2023-05-14T08:42:43;22.20;67.80
74153;DHT22;62505;46.070;14.492;2023-05-14T08:45:15;22.30;67.80
74153;DHT22;62505;46.070;14.492;2023-05-14T08:47:47;22.30;67.80
74153;DHT22;62505;46.070;14.492;2023-05-14T08:50:15;22.30;67.90
74153;DHT22;62505;46.070;14.492;2023-05-14T08:52:42;22.20;67.80
74153;DHT22;62505;46.070;14.492;2023-05-14T08:55:11;22.30;67.90
74153;DHT22;62505;46.070;14.492;2023-05-14T08:57:38;22.30;67.80
74153;DHT22;62505;46.070;14.492;2023-05-14T09:00:05;22.30;67.80
74153;DHT22;62505;46.070;14.492;2023-05-14T09:02:36;22.30;67.90
74153;DHT22;62505;46.070;14.492;2023-05-14T09:05:07;22.30;67.80
74153;DHT22;62505;46.070;14.492;2023-05-14T09:07:34;22.30;67.80
74153;DHT22;62505;46.070;14.492;2023-05-14T09:10:03;22.30;67.80
74153;DHT22;62505;46.070;14.492;2023-05-14T09:12:30;22.30;67.80
74153;DHT22;62505;46.070;14.492;2023-05-14T09:14:57;22.30;67.80
74153;DHT22;62505;46.070;14.492;2023-05-14T09:17:25;22.30;67.80
74153;DHT22;62505;46.070;14.492;2023-05-14T09:19:52;22.30;67.80
74153;DHT22;62505;46.070;14.492;2023-05-14T09:22:21;22.30;67.80
74153;DHT22;62505;46.070;14.492;2023-05-14T09:25:01;22.30;67.80
74153;DHT22;62505;46.070;14.492;2023-05-14T09:27:29;22.30;67.80
74153;DHT22;62505;46.070;14.492;2023-05-14T09:30:04;22.30;67.80
74153;DHT22;62505;46.070;14.492;2023-05-14T09:32:37;22.30;67.80
74153;DHT22;62505;46.070;14.492;2023-05-14T09:35:12;22.30;67.80
74153;DHT22;62505;46.070;14.492;2023-05-14T09:37:43;22.30;67.80
74153;DHT22;62505;46.070;14.492;2023-05-14T09:40:11;22.30;67.80
74153;DHT22;62505;46.070;14.492;2023-05-14T09:42:38;22.30;68.20
74153;DHT22;62505;46.070;14.492;2023-05-14T09:45:07;22.30;67.90
74153;DHT22;62505;46.070;14.492;2023-05-14T09:47:34;22.30;67.90
74153;DHT22;62505;46.070;14.492;2023-05-14T09:50:01;22.30;68.00
74153;DHT22;62505;46.070;14.492;2023-05-14T09:52:27;22.30;68.40
74153;DHT22;62505;46.070;14.492;2023-05-14T09:54:56;22.30;69.20
74153;DHT22;62505;46.070;14.492;2023-05-14T09:57:23;22.40;71.50
74153;DHT22;62505;46.070;14.492;2023-05-14T09:59:51;22.40;70.80
74153;DHT22;62505;46.070;14.492;2023-05-14T10:02:22;22.40;71.50
74153;DHT22;62505;46.070;14.492;2023-05-14T10:04:50;22.30;71.80
74153;DHT22;62505;46.070;14.492;2023-05-14T10:07:21;22.30;73.10
74153;DHT22;62505;46.070;14.492;2023-05-14T10:09:53;22.30;72.80
74153;DHT22;62505;46.070;14.492;2023-05-14T10:12:22;22.30;72.60
74153;DHT22;62505;46.070;14.492;2023-05-14T10:14:51;22.30;72.20
74153;DHT22;62505;46.070;14.492;2023-05-14T10:17:21;22.30;71.70
74153;DHT22;62505;46.070;14.492;2023-05-14T10:19:51;22.20;71.50
74153;DHT22;62505;46.070;14.492;2023-05-14T10:22:22;22.20;71.40
74153;DHT22;62505;46.070;14.492;2023-05-14T10:24:50;22.20;71.20
74153;DHT22;62505;46.070;14.492;2023-05-14T10:27:22;22.20;71.10
74153;DHT22;62505;46.070;14.492;2023-05-14T10:29:51;22.20;71.10
74153;DHT22;62505;46.070;14.492;2023-05-14T10:32:20;22.20;71.00
74153;DHT22;62505;46.070;14.492;2023-05-14T10:34:48;22.20;70.90
74153;DHT22;62505;46.070;14.492;2023-05-14T10:37:17;22.10;70.50
74153;DHT22;62505;46.070;14.492;2023-05-14T10:39:45;22.20;70.80
74153;DHT22;62505;46.070;14.492;2023-05-14T10:42:14;22.10;70.50
74153;DHT22;62505;46.070;14.492;2023-05-14T10:44:46;22.10;70.30
74153;DHT22;62505;46.070;14.492;2023-05-14T10:47:14;22.10;70.30
74153;DHT22;62505;46.070;14.492;2023-05-14T10:49:43;22.10;70.50
74153;DHT22;62505;46.070;14.492;2023-05-14T10:52:16;22.10;70.10
74153;DHT22;62505;46.070;14.492;2023-05-14T10:54:49;22.10;71.10
74153;DHT22;62505;46.070;14.492;2023-05-14T10:57:17;22.10;71.10
74153;DHT22;62505;46.070;14.492;2023-05-14T10:59:48;22.00;70.70
74153;DHT22;62505;46.070;14.492;2023-05-14T11:02:22;22.10;70.60
74153;DHT22;62505;46.070;14.492;2023-05-14T11:04:57;22.10;70.60
74153;DHT22;62505;46.070;14.492;2023-05-14T11:07:27;22.00;70.50
74153;DHT22;62505;46.070;14.492;2023-05-14T11:09:59;22.00;70.60
74153;DHT22;62505;46.070;14.492;2023-05-14T11:12:27;22.00;70.70
74153;DHT22;62505;46.070;14.492;2023-05-14T11:14:59;22.00;70.40
74153;DHT22;62505;46.070;14.492;2023-05-14T11:17:27;22.00;70.70
74153;DHT22;62505;46.070;14.492;2023-05-14T11:19:55;22.00;70.70
74153;DHT22;62505;46.070;14.492;2023-05-14T11:22:23;22.00;70.80
74153;DHT22;62505;46.070;14.492;2023-05-14T11:24:50;22.00;70.50
74153;DHT22;62505;46.070;14.492;2023-05-14T11:27:17;21.90;70.50
74153;DHT22;62505;46.070;14.492;2023-05-14T11:29:45;21.90;71.00
74153;DHT22;62505;46.070;14.492;2023-05-14T11:32:15;21.90;71.60
74153;DHT22;62505;46.070;14.492;2023-05-14T11:34:43;22.00;72.30
74153;DHT22;62505;46.070;14.492;2023-05-14T11:37:11;22.10;73.80
74153;DHT22;62505;46.070;14.492;2023-05-14T11:39:38;22.10;73.40
74153;DHT22;62505;46.070;14.492;2023-05-14T11:42:10;22.10;73.50
74153;DHT22;62505;46.070;14.492;2023-05-14T11:44:39;22.10;74.00
74153;DHT22;62505;46.070;14.492;2023-05-14T11:47:06;22.00;74.10
74153;DHT22;62505;46.070;14.492;2023-05-14T11:49:35;22.00;74.20
74153;DHT22;62505;46.070;14.492;2023-05-14T11:52:04;22.00;73.90
74153;DHT22;62505;46.070;14.492;2023-05-14T11:54:32;22.00;73.90
74153;DHT22;62505;46.070;14.492;2023-05-14T11:57:01;21.90;74.50
74153;DHT22;62505;46.070;14.492;2023-05-14T11:59:30;21.90;74.20
74153;DHT22;62505;46.070;14.492;2023-05-14T12:01:58;21.90;73.90
74153;DHT22;62505;46.070;14.492;2023-05-14T12:04:25;21.90;74.20
74153;DHT22;62505;46.070;14.492;2023-05-14T12:06:53;21.90;74.20
74153;DHT22;62505;46.070;14.492;2023-05-14T12:09:21;21.90;74.90
74153;DHT22;62505;46.070;14.492;2023-05-14T12:11:49;21.90;75.60
74153;DHT22;62505;46.070;14.492;2023-05-14T12:14:18;21.90;75.80
74153;DHT22;62505;46.070;14.492;2023-05-14T12:16:45;22.00;75.80
74153;DHT22;62505;46.070;14.492;2023-05-14T12:19:14;22.00;76.00
74153;DHT22;62505;46.070;14.492;2023-05-14T12:21:42;21.90;76.20
74153;DHT22;62505;46.070;14.492;2023-05-14T12:24:12;21.90;75.70
74153;DHT22;62505;46.070;14.492;2023-05-14T12:26:39;21.90;74.90
74153;DHT22;62505;46.070;14.492;2023-05-14T12:29:12;21.90;75.40
74153;DHT22;62505;46.070;14.492;2023-05-14T12:31:45;21.90;75.40
74153;DHT22;62505;46.070;14.492;2023-05-14T12:34:12;21.80;75.60
74153;DHT22;62505;46.070;14.492;2023-05-14T12:36:39;21.90;74.80
74153;DHT22;62505;46.070;14.492;2023-05-14T12:39:07;21.80;74.60
74153;DHT22;62505;46.070;14.492;2023-05-14T12:41:36;21.80;75.80
74153;DHT22;62505;46.070;14.492;2023-05-14T12:44:03;21.80;74.80
74153;DHT22;62505;46.070;14.492;2023-05-14T12:46:31;21.80;74.70
74153;DHT22;62505;46.070;14.492;2023-05-14T12:48:58;21.80;74.80
74153;DHT22;62505;46.070;14.492;2023-05-14T12:51:25;21.80;75.20
74153;DHT22;62505;46.070;14.492;2023-05-14T12:53:52;21.80;75.20
74153;DHT22;62505;46.070;14.492;2023-05-14T12:56:19;21.80;75.00
74153;DHT22;62505;46.070;14.492;2023-05-14T12:58:53;21.80;75.20
74153;DHT22;62505;46.070;14.492;2023-05-14T13:01:21;21.80;75.00
74153;DHT22;62505;46.070;14.492;2023-05-14T13:03:48;21.80;75.30
74153;DHT22;62505;46.070;14.492;2023-05-14T13:06:15;21.80;75.10
74153;DHT22;62505;46.070;14.492;2023-05-14T13:08:42;21.70;75.30
74153;DHT22;62505;46.070;14.492;2023-05-14T13:11:09;21.80;76.00
74153;DHT22;62505;46.070;14.492;2023-05-14T13:13:36;21.70;74.90
74153;DHT22;62505;46.070;14.492;2023-05-14T13:16:07;21.70;75.10
74153;DHT22;62505;46.070;14.492;2023-05-14T13:18:33;21.70;74.70
74153;DHT22;62505;46.070;14.492;2023-05-14T13:21:00;21.70;75.10
74153;DHT22;62505;46.070;14.492;2023-05-14T13:23:30;21.70;75.20
74153;DHT22;62505;46.070;14.492;2023-05-14T13:25:57;21.70;73.70
74153;DHT22;62505;46.070;14.492;2023-05-14T13:28:25;21.70;73.90
74153;DHT22;62505;46.070;14.492;2023-05-14T13:31:05;21.70;74.10
74153;DHT22;62505;46.070;14.492;2023-05-14T13:33:34;21.70;74.30
74153;DHT22;62505;46.070;14.492;2023-05-14T13:36:01;21.70;74.30
74153;DHT22;62505;46.070;14.492;2023-05-14T13:38:28;21.70;74.30
74153;DHT22;62505;46.070;14.492;2023-05-14T13:40:55;21.70;74.30
74153;DHT22;62505;46.070;14.492;2023-05-14T13:43:27;21.60;74.10
74153;DHT22;62505;46.070;14.492;2023-05-14T13:45:54;21.60;73.70
74153;DHT22;62505;46.070;14.492;2023-05-14T13:48:22;21.60;73.70
74153;DHT22;62505;46.070;14.492;2023-05-14T13:50:49;21.60;73.50
74153;DHT22;62505;46.070;14.492;2023-05-14T13:53:17;21.60;74.20
74153;DHT22;62505;46.070;14.492;2023-05-14T13:55:44;21.60;73.70
74153;DHT22;62505;46.070;14.492;2023-05-14T13:58:11;21.60;74.10
74153;DHT22;62505;46.070;14.492;2023-05-14T14:00:38;21.60;73.80
74153;DHT22;62505;46.070;14.492;2023-05-14T14:03:05;21.60;73.90
74153;DHT22;62505;46.070;14.492;2023-05-14T14:05:34;21.60;73.70
74153;DHT22;62505;46.070;14.492;2023-05-14T14:08:01;21.60;73.80
74153;DHT22;62505;46.070;14.492;2023-05-14T14:10:28;21.60;74.00
74153;DHT22;62505;46.070;14.492;2023-05-14T14:12:56;21.60;74.30
74153;DHT22;62505;46.070;14.492;2023-05-14T14:15:23;21.60;74.40
74153;DHT22;62505;46.070;14.492;2023-05-14T14:17:49;21.60;74.20
74153;DHT22;62505;46.070;14.492;2023-05-14T14:20:16;21.60;74.40
74153;DHT22;62505;46.070;14.492;2023-05-14T14:22:45;21.60;74.40
74153;DHT22;62505;46.070;14.492;2023-05-14T14:25:12;21.60;76.50
74153;DHT22;62505;46.070;14.492;2023-05-14T14:27:39;21.60;75.60
74153;DHT22;62505;46.070;14.492;2023-05-14T14:30:08;21.60;74.90
74153;DHT22;62505;46.070;14.492;2023-05-14T14:32:40;21.60;74.40
74153;DHT22;62505;46.070;14.492;2023-05-14T14:35:08;21.60;74.60
74153;DHT22;62505;46.070;14.492;2023-05-14T14:37:34;21.50;74.20
74153;DHT22;62505;46.070;14.492;2023-05-14T14:40:04;21.60;74.00
74153;DHT22;62505;46.070;14.492;2023-05-14T14:42:32;21.50;74.30
74153;DHT22;62505;46.070;14.492;2023-05-14T14:44:59;21.50;74.40
74153;DHT22;62505;46.070;14.492;2023-05-14T14:47:26;21.50;76.20
74153;DHT22;62505;46.070;14.492;2023-05-14T14:49:54;21.50;76.30
74153;DHT22;62505;46.070;14.492;2023-05-14T14:52:21;21.50;75.50
74153;DHT22;62505;46.070;14.492;2023-05-14T14:54:48;21.50;75.00
74153;DHT22;62505;46.070;14.492;2023-05-14T14:57:16;21.60;74.80
74153;DHT22;62505;46.070;14.492;2023-05-14T14:59:43;21.50;74.90
74153;DHT22;62505;46.070;14.492;2023-05-14T15:02:10;21.50;74.90
74153;DHT22;62505;46.070;14.492;2023-05-14T15:04:37;21.50;74.80
74153;DHT22;62505;46.070;14.492;2023-05-14T15:07:05;21.50;74.70
74153;DHT22;62505;46.070;14.492;2023-05-14T15:09:32;21.50;74.60
74153;DHT22;62505;46.070;14.492;2023-05-14T15:11:58;21.50;74.80
74153;DHT22;62505;46.070;14.492;2023-05-14T15:14:27;21.50;74.90
74153;DHT22;62505;46.070;14.492;2023-05-14T15:16:54;21.50;74.90
74153;DHT22;62505;46.070;14.492;2023-05-14T15:19:20;21.50;74.80